createdAt,value
2023-05-14T00:00:50.260Z,9.8
2023-05-14T00:01:51.319Z,9.7
2023-05-14T00:02:52.353Z,9.6
2023-05-14T00:03:53.330Z,9.6
2023-05-14T00:04:54.302Z,9.6
2023-05-14T00:05:55.311Z,9.6
2023-05-14T00:06:56.325Z,9.6
2023-05-14T00:07:57.285Z,9.6
2023-05-14T00:08:58.319Z,9.6
2023-05-14T00:09:59.385Z,9.6
2023-05-14T00:11:00.325Z,9.6
2023-05-14T00:12:01.392Z,9.7
2023-05-14T00:13:02.305Z,9.7
2023-05-14T00:14:03.364Z,9.7
2023-05-14T00:15:04.297Z,9.7
2023-05-14T00:16:10.393Z,9.7
2023-05-14T00:17:11.304Z,9.7
2023-05-14T00:18:12.449Z,9.7
2023-05-14T00:19:13.411Z,9.7
2023-05-14T00:20:14.308Z,9.7
2023-05-14T00:21:15.327Z,9.7
2023-05-14T00:22:16.302Z,9.8
2023-05-14T00:23:17.315Z,9.8
2023-05-14T00:24:18.325Z,9.8
2023-05-14T00:25:19.353Z,9.8
2023-05-14T00:26:20.294Z,9.8
2023-05-14T00:27:21.503Z,9.8
2023-05-14T00:28:22.323Z,9.9
2023-05-14T00:29:23.328Z,9.9
2023-05-14T00:30:24.520Z,9.8
2023-05-14T00:31:25.315Z,9.8
2023-05-14T00:32:26.354Z,9.7
2023-05-14T00:33:27.325Z,9.7
2023-05-14T00:34:28.305Z,9.6
2023-05-14T00:35:29.300Z,9.6
2023-05-14T00:36:30.315Z,9.7
2023-05-14T00:37:31.391Z,9.7
2023-05-14T00:38:32.329Z,9.7
2023-05-14T00:39:33.324Z,9.7
2023-05-14T00:40:34.347Z,9.8
2023-05-14T00:41:35.334Z,9.8
2023-05-14T00:42:36.345Z,9.8
2023-05-14T00:43:37.334Z,9.8
2023-05-14T00:44:38.332Z,9.9
2023-05-14T00:45:39.304Z,9.9
2023-05-14T00:46:40.398Z,10
2023-05-14T00:47:41.429Z,10
2023-05-14T00:48:42.330Z,10
2023-05-14T00:49:43.325Z,10
2023-05-14T00:50:44.312Z,10
2023-05-14T00:51:45.327Z,10.1
2023-05-14T00:52:46.338Z,10.1
2023-05-14T00:53:47.507Z,10.2
2023-05-14T00:54:48.350Z,10.2
2023-05-14T00:55:49.356Z,10.2
2023-05-14T00:56:50.348Z,10.2
2023-05-14T00:57:51.929Z,10.3
2023-05-14T00:58:53.313Z,10.3
2023-05-14T00:59:54.346Z,10.3
2023-05-14T01:00:55.402Z,10.4
2023-05-14T01:01:56.317Z,10.4
2023-05-14T01:02:57.432Z,10.5
2023-05-14T01:03:58.388Z,10.5
2023-05-14T01:04:59.342Z,10.5
2023-05-14T01:06:00.367Z,10.6
2023-05-14T01:07:01.390Z,10.6
2023-05-14T01:08:02.339Z,10.6
2023-05-14T01:09:03.368Z,10.6
2023-05-14T01:10:04.342Z,10.6
2023-05-14T01:11:05.397Z,10.6
2023-05-14T01:12:06.346Z,10.6
2023-05-14T01:13:07.313Z,10.7
2023-05-14T01:14:08.364Z,10.7
2023-05-14T01:15:09.713Z,10.8
2023-05-14T01:16:11.480Z,10.8
2023-05-14T01:17:12.344Z,10.8
2023-05-14T01:18:13.470Z,10.8
2023-05-14T01:19:14.445Z,10.9
2023-05-14T01:20:15.345Z,10.9
2023-05-14T01:21:16.325Z,11
2023-05-14T01:22:17.365Z,11
2023-05-14T01:23:18.371Z,11.1
2023-05-14T01:24:19.402Z,11.1
2023-05-14T01:25:20.351Z,11.1
2023-05-14T01:26:21.431Z,11.2
2023-05-14T01:27:22.362Z,11.2
2023-05-14T01:28:23.345Z,11.2
2023-05-14T01:29:24.424Z,11.3
2023-05-14T01:30:25.683Z,11.3
2023-05-14T01:31:26.409Z,11.4
2023-05-14T01:32:27.358Z,11.4
2023-05-14T01:33:28.342Z,11.4
2023-05-14T01:34:29.385Z,11.4
2023-05-14T01:35:30.398Z,11.5
2023-05-14T01:36:31.325Z,11.5
2023-05-14T01:37:32.406Z,11.5
2023-05-14T01:38:33.330Z,11.5
2023-05-14T01:39:34.366Z,11.6
2023-05-14T01:40:35.403Z,11.6
2023-05-14T01:41:36.429Z,11.6
2023-05-14T01:42:37.384Z,11.6
2023-05-14T01:43:38.350Z,11.6
2023-05-14T01:44:39.367Z,11.6
2023-05-14T01:45:40.433Z,11.6
2023-05-14T01:46:41.457Z,11.6
2023-05-14T01:47:42.399Z,11.6
2023-05-14T01:48:43.364Z,11.6
2023-05-14T01:49:44.361Z,11.6
2023-05-14T01:50:45.389Z,11.6
2023-05-14T01:51:46.355Z,11.5
2023-05-14T01:52:47.350Z,11.5
2023-05-14T01:53:48.423Z,11.5
2023-05-14T01:54:49.361Z,11.5
2023-05-14T01:55:50.358Z,11.6
2023-05-14T01:56:51.467Z,11.5
2023-05-14T01:57:52.345Z,11.5
2023-05-14T01:58:53.348Z,11.5
2023-05-14T01:59:54.357Z,11.5
2023-05-14T02:00:55.360Z,11.4
2023-05-14T02:01:56.416Z,11.3
2023-05-14T02:02:57.425Z,11.3
2023-05-14T02:03:58.381Z,11.3
2023-05-14T02:04:59.419Z,11.3
2023-05-14T02:06:00.380Z,11.3
2023-05-14T02:07:01.420Z,11.3
2023-05-14T02:08:02.379Z,11.3
2023-05-14T02:09:03.411Z,11.3
2023-05-14T02:10:04.391Z,11.3
2023-05-14T02:11:05.402Z,11.3
2023-05-14T02:12:06.379Z,11.3
2023-05-14T02:13:07.360Z,11.3
2023-05-14T02:14:08.389Z,11.3
2023-05-14T02:15:09.767Z,11.3
2023-05-14T02:16:10.400Z,11.3
2023-05-14T02:17:11.440Z,11.2
2023-05-14T02:18:12.434Z,11.1
2023-05-14T02:19:13.525Z,11.1
2023-05-14T02:20:14.385Z,11.2
2023-05-14T02:21:15.389Z,11.2
2023-05-14T02:22:16.377Z,11.1
2023-05-14T02:23:17.384Z,11.1
2023-05-14T02:24:18.443Z,11.1
2023-05-14T02:25:19.407Z,11.1
2023-05-14T02:26:20.381Z,11.1
2023-05-14T02:27:21.433Z,11
2023-05-14T02:28:22.381Z,11
2023-05-14T02:29:23.402Z,10.9
2023-05-14T02:30:24.603Z,10.9
2023-05-14T02:31:25.444Z,10.8
2023-05-14T02:32:26.491Z,10.8
2023-05-14T02:33:27.425Z,10.7
2023-05-14T02:34:28.380Z,10.6
2023-05-14T02:35:29.382Z,10.6
2023-05-14T02:36:30.447Z,10.5
2023-05-14T02:37:31.453Z,10.5
2023-05-14T02:38:32.385Z,10.5
2023-05-14T02:39:33.403Z,10.5
2023-05-14T02:40:34.389Z,10.5
2023-05-14T02:41:35.402Z,10.5
2023-05-14T02:42:36.433Z,10.5
2023-05-14T02:43:37.451Z,10.5
2023-05-14T02:44:38.410Z,10.5
2023-05-14T02:45:39.386Z,10.5
2023-05-14T02:46:40.474Z,10.4
2023-05-14T02:47:41.421Z,10.4
2023-05-14T02:48:42.448Z,10.4
2023-05-14T02:49:43.383Z,10.5
2023-05-14T02:50:44.365Z,10.5
2023-05-14T02:51:45.382Z,10.5
2023-05-14T02:52:46.428Z,10.5
2023-05-14T02:53:47.445Z,10.5
2023-05-14T02:54:48.444Z,10.5
2023-05-14T02:55:49.401Z,10.5
2023-05-14T02:56:50.405Z,10.4
2023-05-14T02:57:51.432Z,10.3
2023-05-14T02:58:52.407Z,10.3
2023-05-14T02:59:53.405Z,10.3
2023-05-14T03:00:54.468Z,10.3
2023-05-14T03:01:55.423Z,10.3
2023-05-14T03:02:56.453Z,10.4
2023-05-14T03:03:57.489Z,10.4
2023-05-14T03:04:58.374Z,10.4
2023-05-14T03:05:59.500Z,10.4
2023-05-14T03:07:00.410Z,10.4
2023-05-14T03:08:01.429Z,10.4
2023-05-14T03:09:02.473Z,10.3
2023-05-14T03:10:03.404Z,10.3
2023-05-14T03:11:04.407Z,10.3
2023-05-14T03:12:05.402Z,10.4
2023-05-14T03:13:06.416Z,10.3
2023-05-14T03:14:07.393Z,10.3
2023-05-14T03:15:08.375Z,10.3
2023-05-14T03:16:09.483Z,10.3
2023-05-14T03:17:10.464Z,10.3
2023-05-14T03:18:11.393Z,10.3
2023-05-14T03:19:12.533Z,10.3
2023-05-14T03:20:13.434Z,10.4
2023-05-14T03:21:14.366Z,10.3
2023-05-14T03:22:15.452Z,10.4
2023-05-14T03:23:16.404Z,10.3
2023-05-14T03:24:17.426Z,10.4
2023-05-14T03:25:18.393Z,10.4
2023-05-14T03:26:19.376Z,10.4
2023-05-14T03:27:20.387Z,10.3
2023-05-14T03:28:21.447Z,10.3
2023-05-14T03:29:22.425Z,10.3
2023-05-14T03:30:23.526Z,10.3
2023-05-14T03:31:24.497Z,10.3
2023-05-14T03:32:25.469Z,10.3
2023-05-14T03:33:26.431Z,10.3
2023-05-14T03:34:27.432Z,10.3
2023-05-14T03:35:28.423Z,10.2
2023-05-14T03:36:29.431Z,10.2
2023-05-14T03:37:30.444Z,10.2
2023-05-14T03:38:31.437Z,10.2
2023-05-14T03:39:32.444Z,10.2
2023-05-14T03:40:33.451Z,10.2
2023-05-14T03:41:34.431Z,10.1
2023-05-14T03:42:35.463Z,10.1
2023-05-14T03:43:36.501Z,10.2
2023-05-14T03:44:37.366Z,10.2
2023-05-14T03:45:38.448Z,10.3
2023-05-14T03:46:39.465Z,10.3
2023-05-14T03:47:40.436Z,10.3
2023-05-14T03:48:41.562Z,10.4
2023-05-14T03:49:42.487Z,10.4
2023-05-14T03:50:43.423Z,10.4
2023-05-14T03:51:44.441Z,10.4
2023-05-14T03:52:45.436Z,10.4
2023-05-14T03:53:46.404Z,10.5
2023-05-14T03:54:47.481Z,10.5
2023-05-14T03:55:48.426Z,10.6
2023-05-14T03:56:49.424Z,10.6
2023-05-14T03:57:50.384Z,10.6
2023-05-14T03:58:51.447Z,10.7
2023-05-14T03:59:52.472Z,10.7
2023-05-14T04:00:53.464Z,10.7
2023-05-14T04:01:54.426Z,10.7
2023-05-14T04:02:55.472Z,10.6
2023-05-14T04:03:56.467Z,10.6
2023-05-14T04:04:57.510Z,10.6
2023-05-14T04:05:58.345Z,10.6
2023-05-14T04:06:59.433Z,10.7
2023-05-14T04:08:00.417Z,10.7
2023-05-14T04:09:01.523Z,10.8
2023-05-14T04:10:04.259Z,10.8
2023-05-14T04:11:03.427Z,10.9
2023-05-14T04:12:04.446Z,10.9
2023-05-14T04:13:05.429Z,10.9
2023-05-14T04:14:06.475Z,10.9
2023-05-14T04:15:07.469Z,11
2023-05-14T04:16:08.448Z,11
2023-05-14T04:17:09.517Z,11.1
2023-05-14T04:18:10.472Z,11.1
2023-05-14T04:19:11.587Z,11.2
2023-05-14T04:20:12.448Z,11.2
2023-05-14T04:21:13.456Z,11.3
2023-05-14T04:22:14.446Z,11.3
2023-05-14T04:23:15.505Z,11.4
2023-05-14T04:24:16.446Z,11.4
2023-05-14T04:25:17.437Z,11.4
2023-05-14T04:26:18.408Z,11.4
2023-05-14T04:27:19.508Z,11.5
2023-05-14T04:28:20.443Z,11.5
2023-05-14T04:29:21.580Z,11.6
2023-05-14T04:30:22.787Z,11.6
2023-05-14T04:31:23.468Z,11.6
2023-05-14T04:32:24.542Z,11.6
2023-05-14T04:33:25.466Z,11.7
2023-05-14T04:34:26.459Z,11.8
2023-05-14T04:35:27.453Z,11.8
2023-05-14T04:36:28.442Z,11.9
2023-05-14T04:37:29.480Z,11.9
2023-05-14T04:38:30.460Z,12
2023-05-14T04:39:31.447Z,12
2023-05-14T04:40:32.421Z,11.9
2023-05-14T04:41:33.463Z,12
2023-05-14T04:42:34.439Z,12
2023-05-14T04:43:35.507Z,12
2023-05-14T04:44:36.726Z,12.1
2023-05-14T04:45:37.491Z,12.2
2023-05-14T04:46:38.477Z,12.2
2023-05-14T04:47:39.513Z,12.2
2023-05-14T04:48:40.469Z,12.2
2023-05-14T04:49:41.501Z,12.2
2023-05-14T04:50:42.442Z,12.3
2023-05-14T04:51:43.478Z,12.3
2023-05-14T04:52:44.480Z,12.3
2023-05-14T04:53:45.493Z,12.2
2023-05-14T04:54:46.540Z,12.2
2023-05-14T04:55:47.442Z,12.3
2023-05-14T04:56:48.444Z,12.3
2023-05-14T04:57:49.436Z,12.3
2023-05-14T04:58:51.120Z,12.3
2023-05-14T04:59:52.485Z,12.3
2023-05-14T05:00:53.500Z,12.4
2023-05-14T05:01:54.440Z,12.5
2023-05-14T05:02:55.495Z,12.5
2023-05-14T05:03:56.918Z,12.5
2023-05-14T05:04:58.503Z,12.4
2023-05-14T05:05:59.443Z,12.4
2023-05-14T05:07:00.521Z,12.4
2023-05-14T05:08:01.527Z,12.5
2023-05-14T05:09:02.489Z,12.5
2023-05-14T05:10:03.494Z,12.5
2023-05-14T05:11:04.472Z,12.6
2023-05-14T05:12:05.470Z,12.6
2023-05-14T05:13:06.486Z,12.6
2023-05-14T05:14:07.507Z,12.5
2023-05-14T05:15:08.520Z,12.6
2023-05-14T05:16:09.568Z,12.6
2023-05-14T05:17:10.484Z,12.7
2023-05-14T05:18:11.584Z,12.8
2023-05-14T05:19:12.595Z,12.9
2023-05-14T05:20:13.466Z,13
2023-05-14T05:21:14.450Z,13.1
2023-05-14T05:22:15.534Z,13.2
2023-05-14T05:23:16.454Z,13.3
2023-05-14T05:24:17.445Z,13.3
2023-05-14T05:25:18.549Z,13.4
2023-05-14T05:26:19.540Z,13.5
2023-05-14T05:27:20.446Z,13.5
2023-05-14T05:28:21.570Z,13.5
2023-05-14T05:29:22.508Z,13.6
2023-05-14T05:30:23.769Z,13.7
2023-05-14T05:31:24.517Z,13.7
2023-05-14T05:32:25.525Z,13.7
2023-05-14T05:33:26.515Z,13.6
2023-05-14T05:34:27.496Z,13.6
2023-05-14T05:35:28.475Z,13.7
2023-05-14T05:36:29.551Z,13.7
2023-05-14T05:37:30.489Z,13.6
2023-05-14T05:38:31.487Z,13.7
2023-05-14T05:39:32.464Z,13.6
2023-05-14T05:40:33.514Z,13.7
2023-05-14T05:41:34.526Z,13.6
2023-05-14T05:42:35.486Z,13.6
2023-05-14T05:43:36.485Z,13.6
2023-05-14T05:44:37.625Z,13.6
2023-05-14T05:45:38.504Z,13.6
2023-05-14T05:46:39.545Z,13.5
2023-05-14T05:47:40.570Z,13.4
2023-05-14T05:48:41.485Z,13.4
2023-05-14T05:49:42.542Z,13.4
2023-05-14T05:50:43.500Z,13.5
2023-05-14T05:51:44.468Z,13.7
2023-05-14T05:52:45.529Z,13.8
2023-05-14T05:53:46.509Z,13.6
2023-05-14T05:54:47.533Z,13.7
2023-05-14T05:55:48.493Z,13.7
2023-05-14T05:56:49.484Z,13.6
2023-05-14T05:57:50.503Z,13.7
2023-05-14T05:58:51.509Z,13.8
2023-05-14T05:59:52.524Z,13.9
2023-05-14T06:00:53.570Z,14
2023-05-14T06:01:54.483Z,14.1
2023-05-14T06:02:55.507Z,14.2
2023-05-14T06:03:56.542Z,14.3
2023-05-14T06:04:58.156Z,14.1
2023-05-14T06:05:59.526Z,14.2
2023-05-14T06:07:00.510Z,14.2
2023-05-14T06:08:01.532Z,14.4
2023-05-14T06:09:02.509Z,14.4
2023-05-14T06:10:03.578Z,14.4
2023-05-14T06:11:04.586Z,14.4
2023-05-14T06:12:05.520Z,14.3
2023-05-14T06:13:06.484Z,14.4
2023-05-14T06:14:07.512Z,14.5
2023-05-14T06:15:08.542Z,14.6
2023-05-14T06:16:09.554Z,14.6
2023-05-14T06:17:10.515Z,14.6
2023-05-14T06:18:11.533Z,14.7
2023-05-14T06:19:12.590Z,14.8
2023-05-14T06:20:13.556Z,14.8
2023-05-14T06:21:14.487Z,14.8
2023-05-14T06:22:15.686Z,14.7
2023-05-14T06:23:16.480Z,14.6
2023-05-14T06:24:17.524Z,14.7
2023-05-14T06:25:18.583Z,14.7
2023-05-14T06:26:22.520Z,14.8
2023-05-14T06:27:23.523Z,14.8
2023-05-14T06:28:24.490Z,14.8
2023-05-14T06:29:25.515Z,14.8
2023-05-14T06:30:26.641Z,14.8
2023-05-14T06:31:27.545Z,14.8
2023-05-14T06:32:28.484Z,14.8
2023-05-14T06:33:29.514Z,14.8
2023-05-14T06:34:30.491Z,14.9
2023-05-14T06:35:31.553Z,14.9
2023-05-14T06:36:32.509Z,14.9
2023-05-14T06:37:33.477Z,14.9
2023-05-14T06:38:34.557Z,15
2023-05-14T06:39:35.523Z,14.8
2023-05-14T06:40:36.541Z,14.8
2023-05-14T06:41:37.496Z,14.8
2023-05-14T06:42:38.534Z,14.8
2023-05-14T06:43:39.489Z,14.8
2023-05-14T06:44:40.508Z,14.9
2023-05-14T06:45:41.535Z,14.9
2023-05-14T06:46:42.584Z,15
2023-05-14T06:47:43.535Z,15.1
2023-05-14T06:48:44.584Z,15.1
2023-05-14T06:49:45.489Z,15.2
2023-05-14T06:50:46.535Z,15.3
2023-05-14T06:51:47.543Z,15.4
2023-05-14T06:52:48.522Z,15.5
2023-05-14T06:53:49.461Z,15.6
2023-05-14T06:54:50.560Z,15.6
2023-05-14T06:55:51.581Z,15.5
2023-05-14T06:56:52.521Z,15.6
2023-05-14T06:57:53.542Z,15.7
2023-05-14T06:58:54.540Z,15.8
2023-05-14T06:59:55.515Z,15.9
2023-05-14T07:00:56.538Z,16
2023-05-14T07:01:57.587Z,16.1
2023-05-14T07:02:58.636Z,16.1
2023-05-14T07:03:59.563Z,16.2
2023-05-14T07:05:00.516Z,16.2
2023-05-14T07:06:01.583Z,16.3
2023-05-14T07:07:02.544Z,16.3
2023-05-14T07:08:03.528Z,16.3
2023-05-14T07:09:04.515Z,16.3
2023-05-14T07:10:05.561Z,16.4
2023-05-14T07:11:06.803Z,16.4
2023-05-14T07:12:07.520Z,16.3
2023-05-14T07:13:08.501Z,16.2
2023-05-14T07:14:09.484Z,16.3
2023-05-14T07:15:10.491Z,16.1
2023-05-14T07:16:11.635Z,16.1
2023-05-14T07:17:12.610Z,15.8
2023-05-14T07:18:13.539Z,15.8
2023-05-14T07:19:14.598Z,15.8
2023-05-14T07:20:15.765Z,15.7
2023-05-14T07:21:16.548Z,15.6
2023-05-14T07:22:17.539Z,15.7
2023-05-14T07:23:19.733Z,15.7
2023-05-14T07:24:19.522Z,15.8
2023-05-14T07:25:20.577Z,15.9
2023-05-14T07:26:21.529Z,15.9
2023-05-14T07:27:22.542Z,15.9
2023-05-14T07:28:23.567Z,15.9
2023-05-14T07:29:24.643Z,15.9
2023-05-14T07:30:25.830Z,15.9
2023-05-14T07:31:26.548Z,16
2023-05-14T07:32:27.578Z,16.1
2023-05-14T07:33:28.527Z,16.1
2023-05-14T07:34:29.559Z,16
2023-05-14T07:35:30.543Z,15.8
2023-05-14T07:36:31.532Z,15.8
2023-05-14T07:37:32.527Z,15.7
2023-05-14T07:38:33.564Z,15.7
2023-05-14T07:39:34.557Z,15.7
2023-05-14T07:40:35.525Z,15.7
2023-05-14T07:41:36.505Z,15.8
2023-05-14T07:42:37.698Z,16
2023-05-14T07:43:38.531Z,16.1
2023-05-14T07:44:39.655Z,16.1
2023-05-14T07:45:40.509Z,16.2
2023-05-14T07:46:41.551Z,16.3
2023-05-14T07:47:42.663Z,16.3
2023-05-14T07:48:43.573Z,16.5
2023-05-14T07:49:44.553Z,16.7
2023-05-14T07:50:45.531Z,16.9
2023-05-14T07:51:46.601Z,16.9
2023-05-14T07:52:47.546Z,16.9
2023-05-14T07:53:48.549Z,16.9
2023-05-14T07:54:50.639Z,17
2023-05-14T07:55:50.546Z,17
2023-05-14T07:56:51.526Z,17.1
2023-05-14T07:57:52.549Z,17.3
2023-05-14T07:58:53.572Z,17.5
2023-05-14T07:59:54.546Z,17.6
2023-05-14T08:00:55.528Z,17.5
2023-05-14T08:01:56.557Z,17.4
2023-05-14T08:02:57.685Z,17.1
2023-05-14T08:03:58.618Z,16.9
2023-05-14T08:04:59.573Z,16.7
2023-05-14T08:06:00.580Z,16.5
2023-05-14T08:07:01.585Z,16.5
2023-05-14T08:08:02.550Z,16.4
2023-05-14T08:09:03.563Z,16.3
2023-05-14T08:10:04.549Z,16.4
2023-05-14T08:11:05.667Z,16.6
2023-05-14T08:12:06.535Z,16.8
2023-05-14T08:13:07.595Z,17.1
2023-05-14T08:14:08.542Z,17.2
2023-05-14T08:15:09.582Z,17.4
2023-05-14T08:16:10.582Z,17.6
2023-05-14T08:17:11.599Z,17.6
2023-05-14T08:18:12.633Z,17.7
2023-05-14T08:19:13.750Z,17.8
2023-05-14T08:20:14.575Z,17.8
2023-05-14T08:21:15.964Z,17.9
2023-05-14T08:22:17.649Z,17.8
2023-05-14T08:23:18.581Z,17.9
2023-05-14T08:24:19.617Z,17.9
2023-05-14T08:25:20.596Z,17.9
2023-05-14T08:26:21.588Z,18
2023-05-14T08:27:22.595Z,18
2023-05-14T08:28:23.538Z,18.1
2023-05-14T08:29:24.566Z,18
2023-05-14T08:30:25.832Z,17.9
2023-05-14T08:31:26.661Z,17.9
2023-05-14T08:32:27.582Z,17.8
2023-05-14T08:33:28.595Z,17.8
2023-05-14T08:34:29.645Z,17.7
2023-05-14T08:35:30.563Z,17.7
2023-05-14T08:36:31.578Z,17.7
2023-05-14T08:37:32.571Z,17.6
2023-05-14T08:38:33.548Z,17.7
2023-05-14T08:39:34.583Z,17.7
2023-05-14T08:40:35.630Z,17.6
2023-05-14T08:41:36.544Z,17.7
2023-05-14T08:42:37.569Z,17.7
2023-05-14T08:43:38.596Z,17.8
2023-05-14T08:44:39.632Z,17.7
2023-05-14T08:45:40.610Z,17.6
2023-05-14T08:46:41.572Z,17.7
2023-05-14T08:47:45.625Z,17.7
2023-05-14T08:48:46.593Z,17.9
2023-05-14T08:49:47.619Z,18
2023-05-14T08:50:48.739Z,18.1
2023-05-14T08:51:49.580Z,18.2
2023-05-14T08:52:50.623Z,18.4
2023-05-14T08:53:51.575Z,18.4
2023-05-14T08:54:52.640Z,18.5
2023-05-14T08:55:53.588Z,18.7
2023-05-14T08:56:54.625Z,18.8
2023-05-14T08:57:55.583Z,18.7
2023-05-14T08:58:56.563Z,18.8
2023-05-14T08:59:57.578Z,18.8
2023-05-14T09:00:58.578Z,18.9
2023-05-14T09:01:59.573Z,18.8
2023-05-14T09:03:00.652Z,18.8
2023-05-14T09:04:01.699Z,18.8
2023-05-14T09:05:02.751Z,18.7
2023-05-14T09:06:03.613Z,18.6
2023-05-14T09:07:04.625Z,18.5
2023-05-14T09:08:05.585Z,18.6
2023-05-14T09:09:06.582Z,18.5
2023-05-14T09:10:07.585Z,18.5
2023-05-14T09:11:08.730Z,18.6
2023-05-14T09:12:09.592Z,18.7
2023-05-14T09:13:10.583Z,18.9
2023-05-14T09:14:11.624Z,19.1
2023-05-14T09:15:12.571Z,19.3
2023-05-14T09:16:13.780Z,19.3
2023-05-14T09:17:14.621Z,19.3
2023-05-14T09:18:15.937Z,19.4
2023-05-14T09:19:16.665Z,19.5
2023-05-14T09:20:17.626Z,19.5
2023-05-14T09:21:18.671Z,19.4
2023-05-14T09:22:19.587Z,19.3
2023-05-14T09:23:20.600Z,19.2
2023-05-14T09:24:21.591Z,19.1
2023-05-14T09:25:22.626Z,18.9
2023-05-14T09:26:23.634Z,18.8
2023-05-14T09:27:24.627Z,18.7
2023-05-14T09:28:25.668Z,18.7
2023-05-14T09:29:26.576Z,18.7
2023-05-14T09:30:27.643Z,18.8
2023-05-14T09:31:28.636Z,18.9
2023-05-14T09:32:29.645Z,19.1
2023-05-14T09:33:30.643Z,19.1
2023-05-14T09:34:31.604Z,19.1
2023-05-14T09:35:32.689Z,19
2023-05-14T09:36:33.663Z,18.9
2023-05-14T09:37:34.642Z,18.9
2023-05-14T09:38:35.602Z,18.9
2023-05-14T09:39:36.620Z,19
2023-05-14T09:40:37.626Z,19.1
2023-05-14T09:41:38.622Z,19.3
2023-05-14T09:42:39.604Z,19.4
2023-05-14T09:43:40.596Z,19.5
2023-05-14T09:44:41.625Z,19.5
2023-05-14T09:45:42.622Z,19.7
2023-05-14T09:46:43.626Z,19.9
2023-05-14T09:47:44.666Z,20
2023-05-14T09:48:45.699Z,20
2023-05-14T09:49:46.651Z,20.1
2023-05-14T09:50:47.616Z,20.3
2023-05-14T09:51:48.625Z,20.4
2023-05-14T09:52:49.621Z,20.4
2023-05-14T09:53:50.586Z,20.5
2023-05-14T09:54:51.641Z,20.5
2023-05-14T09:55:55.019Z,20.5
2023-05-14T09:56:55.709Z,20.4
2023-05-14T09:57:55.623Z,20.2
2023-05-14T09:58:56.685Z,20.1
2023-05-14T09:59:57.621Z,19.9
2023-05-14T10:00:58.720Z,19.9
2023-05-14T10:01:59.642Z,19.8
2023-05-14T10:03:00.628Z,19.8
2023-05-14T10:04:01.751Z,19.8
2023-05-14T10:05:02.683Z,19.7
2023-05-14T10:06:03.670Z,19.7
2023-05-14T10:07:04.644Z,19.7
2023-05-14T10:08:05.618Z,19.8
2023-05-14T10:09:06.621Z,19.8
2023-05-14T10:10:07.640Z,19.9
2023-05-14T10:11:08.669Z,20
2023-05-14T10:12:09.646Z,20.1
2023-05-14T10:13:10.621Z,20
2023-05-14T10:14:11.631Z,19.8
2023-05-14T10:15:12.636Z,19.8
2023-05-14T10:16:13.643Z,19.8
2023-05-14T10:17:14.818Z,19.8
2023-05-14T10:18:16.117Z,19.8
2023-05-14T10:19:17.858Z,19.9
2023-05-14T10:20:18.664Z,20.1
2023-05-14T10:21:19.789Z,20.3
2023-05-14T10:22:20.651Z,20.4
2023-05-14T10:23:21.619Z,20.3
2023-05-14T10:24:22.672Z,20.4
2023-05-14T10:25:23.636Z,20.4
2023-05-14T10:26:24.721Z,20.4
2023-05-14T10:27:25.640Z,20.4
2023-05-14T10:28:26.645Z,20.3
2023-05-14T10:29:27.642Z,20.4
2023-05-14T10:30:28.635Z,20.5
2023-05-14T10:31:29.702Z,20.5
2023-05-14T10:32:30.722Z,20.6
2023-05-14T10:33:31.703Z,20.7
2023-05-14T10:34:32.642Z,20.7
2023-05-14T10:35:33.651Z,20.7
2023-05-14T10:36:34.645Z,20.7
2023-05-14T10:37:35.665Z,20.7
2023-05-14T10:38:36.617Z,20.8
2023-05-14T10:39:37.643Z,20.9
2023-05-14T10:40:38.628Z,21
2023-05-14T10:41:39.670Z,21.1
2023-05-14T10:42:40.623Z,21.2
2023-05-14T10:43:41.679Z,21.3
2023-05-14T10:44:42.643Z,21.4
2023-05-14T10:45:43.647Z,21.5
2023-05-14T10:46:44.697Z,21.6
2023-05-14T10:47:45.654Z,21.5
2023-05-14T10:48:46.750Z,21.2
2023-05-14T10:49:47.762Z,21.2
2023-05-14T10:50:48.847Z,21.1
2023-05-14T10:51:49.679Z,21.1
2023-05-14T10:52:50.676Z,21
2023-05-14T10:53:51.656Z,21
2023-05-14T10:54:52.735Z,21
2023-05-14T10:55:53.812Z,21
2023-05-14T10:56:54.660Z,21
2023-05-14T10:57:55.627Z,21
2023-05-14T10:58:56.658Z,21.1
2023-05-14T10:59:57.621Z,21.1
2023-05-14T11:00:58.761Z,21.2
2023-05-14T11:01:59.660Z,21.3
2023-05-14T11:03:00.733Z,21.3
2023-05-14T11:04:01.750Z,21.4
2023-05-14T11:05:02.740Z,21.6
2023-05-14T11:06:03.721Z,21.9
2023-05-14T11:07:04.762Z,22.2
2023-05-14T11:08:05.662Z,22.3
2023-05-14T11:09:06.669Z,22.2
2023-05-14T11:10:07.678Z,22.3
2023-05-14T11:11:08.666Z,22.3
2023-05-14T11:12:09.722Z,22.1
2023-05-14T11:13:10.681Z,21.8
2023-05-14T11:14:11.668Z,21.7
2023-05-14T11:15:12.682Z,21.8
2023-05-14T11:16:22.286Z,21.7
2023-05-14T11:17:14.724Z,21.6
2023-05-14T11:18:15.736Z,21.6
2023-05-14T11:19:16.979Z,21.4
2023-05-14T11:20:18.801Z,21.2
2023-05-14T11:21:19.761Z,21
2023-05-14T11:22:20.651Z,20.8
2023-05-14T11:23:21.660Z,20.7
2023-05-14T11:24:22.710Z,20.6
2023-05-14T11:25:23.714Z,20.6
2023-05-14T11:26:24.810Z,20.6
2023-05-14T11:27:25.666Z,20.7
2023-05-14T11:28:26.716Z,20.7
2023-05-14T11:29:27.649Z,20.9
2023-05-14T11:30:28.699Z,21.1
2023-05-14T11:31:29.690Z,21.4
2023-05-14T11:32:30.704Z,21.6
2023-05-14T11:33:31.688Z,21.8
2023-05-14T11:34:32.768Z,22.1
2023-05-14T11:35:33.684Z,22.3
2023-05-14T11:36:34.742Z,22.3
2023-05-14T11:37:35.716Z,22.4
2023-05-14T11:38:36.717Z,22.5
2023-05-14T11:39:37.692Z,22.6
2023-05-14T11:40:40.212Z,22.7
2023-05-14T11:41:41.804Z,22.7
2023-05-14T11:42:42.676Z,22.7
2023-05-14T11:43:43.653Z,22.9
2023-05-14T11:44:45.639Z,23.1
2023-05-14T11:45:46.723Z,23.4
2023-05-14T11:46:47.692Z,23.6
2023-05-14T11:47:48.758Z,23.9
2023-05-14T11:48:49.669Z,24.1
2023-05-14T11:49:50.656Z,24.3
2023-05-14T11:50:51.745Z,24.4
2023-05-14T11:51:52.702Z,24.5
2023-05-14T11:52:53.686Z,24.5
2023-05-14T11:53:54.715Z,24.4
2023-05-14T11:54:55.690Z,24.2
2023-05-14T11:55:56.678Z,24
2023-05-14T11:56:57.674Z,23.9
2023-05-14T11:57:58.683Z,23.9
2023-05-14T11:58:59.724Z,24
2023-05-14T12:00:00.658Z,24.1
2023-05-14T12:01:01.728Z,24.3
2023-05-14T12:02:02.782Z,24.5
2023-05-14T12:03:03.756Z,24.6
2023-05-14T12:04:04.783Z,24.1
2023-05-14T12:05:05.699Z,23.9
2023-05-14T12:06:09.686Z,24
2023-05-14T12:07:10.785Z,24
2023-05-14T12:08:11.685Z,24.1
2023-05-14T12:09:12.685Z,24.1
2023-05-14T12:10:13.712Z,23.9
2023-05-14T12:11:14.689Z,23.7
2023-05-14T12:12:15.717Z,23.6
2023-05-14T12:13:16.992Z,23.5
2023-05-14T12:14:17.724Z,23.6
2023-05-14T12:15:18.718Z,23.8
2023-05-14T12:16:19.737Z,24.1
2023-05-14T12:17:20.807Z,24
2023-05-14T12:18:24.401Z,23.9
2023-05-14T12:19:22.768Z,23.6
2023-05-14T12:20:23.932Z,23.4
2023-05-14T12:21:24.699Z,23.3
2023-05-14T12:22:25.724Z,23.2
2023-05-14T12:23:26.720Z,23.2
2023-05-14T12:24:27.713Z,23.1
2023-05-14T12:25:28.722Z,23
2023-05-14T12:26:29.706Z,23
2023-05-14T12:27:30.721Z,23
2023-05-14T12:28:31.743Z,23
2023-05-14T12:29:32.730Z,22.9
2023-05-14T12:30:33.721Z,22.9
2023-05-14T12:31:34.746Z,22.9
2023-05-14T12:32:35.740Z,22.9
2023-05-14T12:33:36.774Z,22.9
2023-05-14T12:34:37.927Z,23
2023-05-14T12:35:38.709Z,22.9
2023-05-14T12:36:39.720Z,22.9
2023-05-14T12:37:40.768Z,23
2023-05-14T12:38:41.829Z,23.1
2023-05-14T12:39:42.724Z,23.3
2023-05-14T12:40:43.720Z,23.5
2023-05-14T12:41:44.712Z,23.7
2023-05-14T12:42:45.729Z,23.9
2023-05-14T12:43:46.759Z,24.1
2023-05-14T12:44:47.724Z,24.2
2023-05-14T12:45:48.730Z,24.3
2023-05-14T12:46:49.724Z,24.3
2023-05-14T12:47:50.791Z,24.1
2023-05-14T12:48:53.303Z,24
2023-05-14T12:49:52.687Z,23.7
2023-05-14T12:50:53.763Z,23.5
2023-05-14T12:52:03.396Z,23.4
2023-05-14T12:52:55.827Z,23.3
2023-05-14T12:53:56.724Z,23.1
2023-05-14T12:54:57.713Z,23.2
2023-05-14T12:55:58.764Z,23.4
2023-05-14T12:56:59.723Z,23.4
2023-05-14T12:58:00.748Z,23.6
2023-05-14T12:59:01.754Z,23.7
2023-05-14T13:00:02.816Z,23.9
2023-05-14T13:01:03.772Z,24
2023-05-14T13:02:04.766Z,24.1
2023-05-14T13:03:05.847Z,24.2
2023-05-14T13:04:06.731Z,24.4
2023-05-14T13:05:07.760Z,24.5
2023-05-14T13:06:08.798Z,24.6
2023-05-14T13:07:09.744Z,24.7
2023-05-14T13:08:10.819Z,25
2023-05-14T13:09:11.754Z,25.2
2023-05-14T13:10:12.800Z,25.4
2023-05-14T13:11:13.744Z,25.5
2023-05-14T13:12:14.770Z,25.7
2023-05-14T13:13:15.756Z,25.7
2023-05-14T13:14:18.363Z,25.9
2023-05-14T13:15:18.757Z,25.9
2023-05-14T13:16:19.828Z,25.9
2023-05-14T13:17:20.773Z,25.8
2023-05-14T13:18:21.797Z,25.7
2023-05-14T13:19:22.758Z,25.5
2023-05-14T13:20:23.786Z,25.3
2023-05-14T13:21:24.780Z,25.3
2023-05-14T13:22:25.779Z,25.3
2023-05-14T13:23:26.860Z,25.3
2023-05-14T13:24:27.740Z,25.3
2023-05-14T13:25:28.773Z,25.5
2023-05-14T13:26:29.764Z,25.6
2023-05-14T13:27:30.787Z,25.8
2023-05-14T13:28:31.823Z,26
2023-05-14T13:29:32.790Z,26.1
2023-05-14T13:30:33.781Z,26
2023-05-14T13:31:34.953Z,26
2023-05-14T13:32:35.776Z,26
2023-05-14T13:33:36.774Z,25.6
2023-05-14T13:34:37.761Z,25.4
2023-05-14T13:35:38.761Z,25.3
2023-05-14T13:36:39.873Z,25.2
2023-05-14T13:37:40.789Z,25.1
2023-05-14T13:38:41.809Z,25